Time;durP1;ratioP1;P1;durP2;ratioP2;P2;SDS_P1;SDS_P2;PMS_P1;PMS_P2;Temp;Humidity;BMP_temperature;BMP_pressure;BME280_temperature;BME280_humidity;BME280_pressure;Samples;Min_cycle;Max_cycle;Signal;HPM_P1;HPM_P2
2022/11/25 00:00:27;;;;;;;4;2.6;;;;;;;1.02;99.27051;937.7875;;;;
2022/11/25 00:02:53;;;;;;;3.9;3.3;;;;;;;0.97;99.53711;937.759;;;;
2022/11/25 00:05:23;;;;;;;1.3;1.2;;;;;;;1.02;99.18066;937.8031;;;;
2022/11/25 00:08:46;;;;;;;5.4;3.8;;;;;;;1.05;99.33301;937.7861;;;;
2022/11/25 00:11:19;;;;;;;6.6;4.2;;;;;;;0.98;98.94727;937.7562;;;;
2022/11/25 00:13:52;;;;;;;7.2;4.1;;;;;;;0.94;98.65918;937.6566;;;;
2022/11/25 00:16:25;;;;;;;5.9;3.9;;;;;;;0.74;99.55957;937.6715;;;;
2022/11/25 00:18:53;;;;;;;5.6;3.8;;;;;;;0.81;99.07422;937.6523;;;;
2022/11/25 00:21:36;;;;;;;7.4;4.6;;;;;;;0.76;99.09473;937.6364;;;;
2022/11/25 00:24:02;;;;;;;5.9;3.9;;;;;;;0.7;99.17188;937.6229;;;;
2022/11/25 00:26:28;;;;;;;5.2;3.9;;;;;;;0.63;99.74609;937.6347;;;;
2022/11/25 00:29:04;;;;;;;5.3;3.4;;;;;;;0.72;99.99023;937.6637;;;;
2022/11/25 00:31:29;;;;;;;4.1;3;;;;;;;0.74;99.64844;937.5681;;;;
2022/11/25 00:33:55;;;;;;;4.2;3.3;;;;;;;0.8;99.71973;937.6398;;;;
2022/11/25 00:36:21;;;;;;;5.1;3;;;;;;;0.83;99.24609;937.668;;;;
2022/11/25 00:38:47;;;;;;;5.1;3.3;;;;;;;0.94;98.54785;937.6786;;;;
2022/11/25 00:46:02;;;;;;;2.5;2.2;;;;;;;0.79;98.9248;937.5744;;;;
2022/11/25 00:48:27;;;;;;;3.5;2.9;;;;;;;0.73;98.34082;937.519;;;;
2022/11/25 00:50:53;;;;;;;5.8;3.4;;;;;;;0.79;98.19727;937.4927;;;;
2022/11/25 00:53:18;;;;;;;4.7;3.2;;;;;;;0.92;97.65918;937.5646;;;;
2022/11/25 00:58:08;;;;;;;2.5;2;;;;;;;0.8;97.24219;937.5337;;;;
2022/11/25 01:00:36;;;;;;;2.1;1.7;;;;;;;0.74;97.64063;937.5273;;;;
2022/11/25 01:03:01;;;;;;;3.5;2.4;;;;;;;0.84;97.79883;937.5283;;;;
2022/11/25 01:05:31;;;;;;;3.5;2.5;;;;;;;0.83;97.51563;937.585;;;;
2022/11/25 01:08:17;;;;;;;3.1;2.2;;;;;;;0.87;97.18066;937.5851;;;;
2022/11/25 01:10:44;;;;;;;2;1.8;;;;;;;0.85;97.37695;937.5984;;;;
2022/11/25 01:13:09;;;;;;;3.2;2;;;;;;;0.88;97.2832;937.5567;;;;
2022/11/25 01:15:40;;;;;;;3.7;1.8;;;;;;;0.83;97.4375;937.6305;;;;
2022/11/25 01:18:09;;;;;;;2.1;1.8;;;;;;;0.65;98.14355;937.5664;;;;
2022/11/25 01:20:34;;;;;;;3.3;1.9;;;;;;;0.75;97.92383;937.5571;;;;
2022/11/25 01:22:59;;;;;;;3.5;2.7;;;;;;;0.73;98.6875;937.5222;;;;
2022/11/25 01:25:30;;;;;;;2.1;1.8;;;;;;;0.8;98.14551;937.5708;;;;
2022/11/25 01:27:55;;;;;;;2.5;1.6;;;;;;;0.86;97.65625;937.5776;;;;
2022/11/25 01:30:22;;;;;;;2.3;1.9;;;;;;;0.87;97.42578;937.5313;;;;
2022/11/25 01:32:47;;;;;;;2;1.7;;;;;;;1.09;97.15039;937.5095;;;;
2022/11/25 01:38:32;;;;;;;4.4;2.8;;;;;;;0.97;96.76563;937.4766;;;;
2022/11/25 01:41:00;;;;;;;5.4;2.6;;;;;;;0.96;97.07617;937.5272;;;;
2022/11/25 01:43:25;;;;;;;4.8;2.7;;;;;;;0.95;97.14355;937.512;;;;
2022/11/25 01:45:51;;;;;;;4.1;3;;;;;;;0.88;97.27148;937.5231;;;;
2022/11/25 01:48:17;;;;;;;6;3.1;;;;;;;0.92;97.31348;937.5122;;;;
2022/11/25 01:50:43;;;;;;;4.3;3.3;;;;;;;0.83;97.42676;937.5489;;;;
2022/11/25 01:53:10;;;;;;;5.8;3.1;;;;;;;0.67;98.16992;937.532;;;;
2022/11/25 01:55:35;;;;;;;5.7;3.1;;;;;;;0.57;98.94141;937.4468;;;;
2022/11/25 01:58:03;;;;;;;5.7;2.7;;;;;;;0.6;99.08105;937.4401;;;;
2022/11/25 02:00:29;;;;;;;4;2.5;;;;;;;0.64;98.76855;937.4243;;;;
2022/11/25 02:02:54;;;;;;;3;2.3;;;;;;;0.58;99.50977;937.4344;;;;
2022/11/25 02:05:22;;;;;;;4.2;2.4;;;;;;;0.69;99.08008;937.4601;;;;
2022/11/25 02:07:47;;;;;;;3;2.4;;;;;;;0.68;99.00879;937.4744;;;;
2022/11/25 02:10:13;;;;;;;4.7;2.4;;;;;;;0.73;99.13379;937.3937;;;;
2022/11/25 02:12:39;;;;;;;3.5;2.3;;;;;;;0.76;98.95215;937.3162;;;;
2022/11/25 02:15:05;;;;;;;3.3;2.3;;;;;;;0.84;98.56738;937.3926;;;;
2022/11/25 02:17:32;;;;;;;4.3;2.6;;;;;;;0.89;98.53516;937.3259;;;;
2022/11/25 02:19:57;;;;;;;2.6;2;;;;;;;1.03;98.09961;937.2891;;;;
2022/11/25 02:22:26;;;;;;;2.8;2;;;;;;;1.04;98.01074;937.2676;;;;
2022/11/25 02:24:51;;;;;;;2.1;1.9;;;;;;;1.03;97.63086;937.2147;;;;
2022/11/25 02:27:16;;;;;;;4.4;2.1;;;;;;;1.01;97.89453;937.2352;;;;
2022/11/25 02:29:41;;;;;;;2.7;2.1;;;;;;;1.1;97.52441;937.2303;;;;
2022/11/25 02:32:07;;;;;;;2.9;1.9;;;;;;;1.05;97.57031;937.226;;;;
2022/11/25 02:34:32;;;;;;;4.1;1.7;;;;;;;1.15;96.86523;937.1916;;;;
2022/11/25 02:36:59;;;;;;;3.7;2.2;;;;;;;0.96;97.73535;937.2504;;;;
2022/11/25 02:39:25;;;;;;;2.8;2.4;;;;;;;1.12;97.29199;937.2159;;;;
2022/11/25 02:41:51;;;;;;;3.9;2.5;;;;;;;0.96;97.77051;937.1119;;;;
2022/11/25 02:44:15;;;;;;;4.2;2.4;;;;;;;1.04;97.56348;937.1375;;;;
2022/11/25 02:46:41;;;;;;;2.4;2.2;;;;;;;0.99;97.75488;937.1265;;;;
2022/11/25 02:49:06;;;;;;;3.1;2.2;;;;;;;0.99;97.93359;937.1578;;;;
2022/11/25 02:51:31;;;;;;;4.1;3.2;;;;;;;0.99;97.93359;937.1437;;;;
2022/11/25 02:53:57;;;;;;;4.9;2.8;;;;;;;0.8;98.69238;936.9996;;;;
2022/11/25 02:58:47;;;;;;;5.6;2.9;;;;;;;0.92;98.37402;937.0748;;;;
2022/11/25 03:01:12;;;;;;;5.7;2.8;;;;;;;1;98.16113;937.0341;;;;
2022/11/25 03:03:38;;;;;;;6;3.3;;;;;;;1.05;98.00391;937.0689;;;;
2022/11/25 03:06:04;;;;;;;7.9;3.5;;;;;;;1.1;97.69043;936.9777;;;;
2022/11/25 03:08:29;;;;;;;3.7;2.3;;;;;;;0.92;98.1084;937.0656;;;;
2022/11/25 03:10:54;;;;;;;2.6;2.1;;;;;;;0.92;98.77637;937.0739;;;;
2022/11/25 03:13:19;;;;;;;3.6;3.3;;;;;;;1.05;98.47461;937.0425;;;;
2022/11/25 03:15:44;;;;;;;3.5;2.1;;;;;;;1.16;97.51465;937.0893;;;;
2022/11/25 03:18:09;;;;;;;2.2;1.9;;;;;;;1.2;97.06738;937.0333;;;;
2022/11/25 03:20:35;;;;;;;3.2;2.2;;;;;;;1.15;96.87598;936.9917;;;;
2022/11/25 03:23:00;;;;;;;3.9;2.3;;;;;;;1.12;96.94824;937.0289;;;;
2022/11/25 03:25:25;;;;;;;2.5;1.8;;;;;;;1.09;97.01758;937.0408;;;;
2022/11/25 03:27:51;;;;;;;3.5;1.8;;;;;;;1.15;97.09961;937.0363;;;;
2022/11/25 03:30:16;;;;;;;2.6;1.8;;;;;;;1.31;96.01758;937.0227;;;;
2022/11/25 03:32:41;;;;;;;3.2;1.8;;;;;;;1.27;93.81934;937.0692;;;;
2022/11/25 03:35:10;;;;;;;3.4;2;;;;;;;1.38;94.43555;937.0978;;;;
2022/11/25 03:37:35;;;;;;;2.1;1.4;;;;;;;1.3;93.78027;937.0898;;;;
2022/11/25 03:40:02;;;;;;;2.9;1.8;;;;;;;1.42;94.35449;937.1586;;;;
2022/11/25 03:42:27;;;;;;;1.9;1.6;;;;;;;1.22;94.6582;937.1707;;;;
2022/11/25 03:44:57;;;;;;;2;1.5;;;;;;;1.32;94.52246;937.0711;;;;
2022/11/25 03:47:22;;;;;;;2.1;1.4;;;;;;;1.4;94.02637;937.1411;;;;
2022/11/25 03:49:49;;;;;;;2.4;1.4;;;;;;;1.31;94.01953;937.1789;;;;
2022/11/25 03:52:14;;;;;;;1.5;1.4;;;;;;;1.5;93.41309;937.1198;;;;
2022/11/25 03:54:42;;;;;;;2.8;1.2;;;;;;;1.53;91.67676;937.1738;;;;
2022/11/25 03:57:07;;;;;;;1.9;1.4;;;;;;;1.73;91.76074;937.1872;;;;
2022/11/25 03:59:32;;;;;;;1.4;0.9;;;;;;;1.71;91.62305;937.2664;;;;
2022/11/25 04:02:31;;;;;;;1.2;1;;;;;;;1.39;93.58789;937.3166;;;;
2022/11/25 04:04:58;;;;;;;1.4;1.3;;;;;;;1.55;92.86426;937.2489;;;;
2022/11/25 04:07:24;;;;;;;0.8;0.8;;;;;;;1.52;93.05762;937.2553;;;;
2022/11/25 04:09:51;;;;;;;0.9;0.8;;;;;;;1.56;92.99121;937.2792;;;;
2022/11/25 04:14:41;;;;;;;1.3;0.9;;;;;;;1.65;92.54102;937.3318;;;;
2022/11/25 04:17:07;;;;;;;1.4;1;;;;;;;1.75;92.03516;937.291;;;;
2022/11/25 04:19:32;;;;;;;1;0.9;;;;;;;1.8;91.67773;937.3343;;;;
2022/11/25 04:22:00;;;;;;;2.5;0.9;;;;;;;1.9;90.13281;937.3123;;;;
2022/11/25 04:24:23;;;;;;;1.1;0.9;;;;;;;1.88;90.06152;937.3555;;;;
2022/11/25 04:26:50;;;;;;;2.1;1.1;;;;;;;1.94;88.97656;937.3239;;;;
2022/11/25 04:29:15;;;;;;;2.6;1.4;;;;;;;1.97;88.91699;937.3144;;;;
2022/11/25 04:31:41;;;;;;;2.7;1.5;;;;;;;2.03;89.07324;937.2877;;;;
2022/11/25 04:34:06;;;;;;;5.3;1.7;;;;;;;2.01;89.58301;937.3245;;;;
2022/11/25 04:36:34;;;;;;;3.3;2.3;;;;;;;1.75;91.36426;937.4401;;;;
2022/11/25 04:38:59;;;;;;;3.8;2.7;;;;;;;1.72;91.86133;937.5323;;;;
2022/11/25 04:41:25;;;;;;;3.3;2.8;;;;;;;1.67;92.11816;937.611;;;;
2022/11/25 04:43:50;;;;;;;2.7;2.4;;;;;;;1.61;92.46191;937.6445;;;;
2022/11/25 04:46:16;;;;;;;4;2.6;;;;;;;1.35;94.09473;937.7124;;;;
2022/11/25 04:48:41;;;;;;;4.4;2.7;;;;;;;1.25;94.80762;937.7542;;;;
2022/11/25 04:51:07;;;;;;;3.3;2.5;;;;;;;1.25;95.15625;937.7271;;;;
2022/11/25 04:53:33;;;;;;;3;2.5;;;;;;;1.41;94.64258;937.7809;;;;
2022/11/25 04:56:32;;;;;;;3;2.4;;;;;;;1.5;94.25098;937.851;;;;
2022/11/25 05:01:26;;;;;;;3.4;2.2;;;;;;;1.58;93.85352;937.8596;;;;
2022/11/25 05:03:51;;;;;;;4;2.2;;;;;;;1.64;93.53223;937.8956;;;;
2022/11/25 05:06:16;;;;;;;2.9;2.1;;;;;;;1.66;93.23633;937.8926;;;;
2022/11/25 05:08:41;;;;;;;3.6;2.3;;;;;;;1.66;93.05566;937.8861;;;;
2022/11/25 05:11:07;;;;;;;2.3;1.9;;;;;;;1.75;92.85156;937.8943;;;;
2022/11/25 05:13:32;;;;;;;2.3;1.9;;;;;;;1.78;92.55566;937.9358;;;;
2022/11/25 05:15:57;;;;;;;3.3;1.8;;;;;;;1.7;92.55078;937.9766;;;;
2022/11/25 05:18:24;;;;;;;3.6;2.5;;;;;;;1.66;92.92285;937.8188;;;;
2022/11/25 05:20:49;;;;;;;4.5;2.5;;;;;;;1.44;93.8125;938.0034;;;;
2022/11/25 05:23:16;;;;;;;5.1;3.2;;;;;;;1.49;94.10449;937.9714;;;;
2022/11/25 05:25:44;;;;;;;5.6;3.7;;;;;;;1.36;94.62109;937.9342;;;;
2022/11/25 05:28:09;;;;;;;6.3;4.5;;;;;;;1.27;94.82324;937.97;;;;
2022/11/25 05:30:38;;;;;;;6.6;4.5;;;;;;;1.18;95.73145;937.9902;;;;
2022/11/25 05:33:03;;;;;;;12;6.4;;;;;;;1.06;96.33105;938.0154;;;;
2022/11/25 05:36:13;;;;;;;31.6;14.6;;;;;;;1.06;96.3418;938.0179;;;;
2022/11/25 05:38:41;;;;;;;20.4;11.7;;;;;;;1.2;95.83594;938.017;;;;
2022/11/25 05:41:07;;;;;;;18.2;9.3;;;;;;;1.13;96.0791;938.0345;;;;
2022/11/25 05:43:32;;;;;;;6.7;4.5;;;;;;;1.06;96.45313;937.9578;;;;
2022/11/25 05:46:01;;;;;;;10.3;6.2;;;;;;;1.01;97.11328;938.0222;;;;
2022/11/25 05:48:26;;;;;;;7.6;5;;;;;;;1.05;97.2998;937.9808;;;;
2022/11/25 05:50:53;;;;;;;6.4;4.1;;;;;;;1.07;97.27051;937.9955;;;;
2022/11/25 05:56:09;;;;;;;5.7;4;;;;;;;1.2;96.77441;937.9417;;;;
2022/11/25 05:58:34;;;;;;;6.7;4.2;;;;;;;1.09;97.44238;937.9324;;;;
2022/11/25 06:00:59;;;;;;;4;2.6;;;;;;;1.17;96.55859;937.8631;;;;
2022/11/25 06:03:24;;;;;;;4.6;4.1;;;;;;;1.44;93.23145;937.8968;;;;
2022/11/25 06:05:51;;;;;;;4.9;2.7;;;;;;;1.47;94.09766;937.892;;;;
2022/11/25 06:08:16;;;;;;;12.2;11.1;;;;;;;1.62;93.41699;937.8845;;;;
2022/11/25 06:10:41;;;;;;;6.7;4.1;;;;;;;1.64;93.10742;937.8994;;;;
2022/11/25 06:13:07;;;;;;;9.2;8.3;;;;;;;1.69;91.72168;937.8865;;;;
2022/11/25 06:15:41;;;;;;;3.5;2.3;;;;;;;1.65;91.16309;937.9824;;;;
2022/11/25 06:18:08;;;;;;;5.8;4.3;;;;;;;1.8;91.30859;937.8963;;;;
2022/11/25 06:20:43;;;;;;;5.5;3.7;;;;;;;1.78;91.53711;937.9648;;;;
2022/11/25 06:23:09;;;;;;;9.4;6.3;;;;;;;1.54;93.11914;937.9656;;;;
2022/11/25 06:25:35;;;;;;;6.5;4.5;;;;;;;1.37;94.09863;937.9587;;;;
2022/11/25 06:28:01;;;;;;;7.6;5;;;;;;;1.3;95.08984;937.9998;;;;
2022/11/25 06:30:26;;;;;;;9.1;5.1;;;;;;;1.4;94.90918;937.9992;;;;
2022/11/25 06:32:53;;;;;;;8.7;5.2;;;;;;;1.46;94.92285;937.8845;;;;
2022/11/25 06:35:19;;;;;;;8.4;5.4;;;;;;;1.46;95.1709;938.0078;;;;
2022/11/25 06:37:47;;;;;;;7.2;5;;;;;;;1.43;95.31055;937.9666;;;;
2022/11/25 06:46:48;;;;;;;8;4.8;;;;;;;1.53;95.24121;937.9244;;;;
2022/11/25 06:49:14;;;;;;;10.2;4.8;;;;;;;1.47;94.69043;938.0089;;;;
2022/11/25 06:51:52;;;;;;;10.7;5.3;;;;;;;1.6;94.39453;938.0283;;;;
2022/11/25 06:54:18;;;;;;;10.1;5.7;;;;;;;1.63;93.91016;938.0229;;;;
2022/11/25 06:56:50;;;;;;;10.3;7.7;;;;;;;1.63;93.64453;938.0499;;;;
2022/11/25 06:59:10;;;;;;;12.9;8;;;;;;;1.5;94.16211;938.0762;;;;
2022/11/25 07:01:38;;;;;;;16.2;11;;;;;;;1.58;93.62988;938.084;;;;
2022/11/25 07:04:05;;;;;;;9.7;6.4;;;;;;;1.58;93.59863;938.0528;;;;
2022/11/25 07:06:28;;;;;;;10.5;5.3;;;;;;;1.56;93.60352;938.0878;;;;
2022/11/25 07:08:54;;;;;;;8.9;6.1;;;;;;;1.53;93.16211;938.1646;;;;
2022/11/25 07:11:19;;;;;;;9.3;5.6;;;;;;;1.61;93.25781;938.2003;;;;
2022/11/25 07:13:45;;;;;;;10.6;8.5;;;;;;;1.78;91.81738;938.1902;;;;
2022/11/25 07:16:13;;;;;;;4.8;2.8;;;;;;;1.91;90.85059;938.2217;;;;
2022/11/25 07:18:38;;;;;;;1.6;1.5;;;;;;;2.02;89.8457;938.1701;;;;
2022/11/25 07:21:04;;;;;;;1.7;1.5;;;;;;;2.24;89.16211;938.216;;;;
2022/11/25 07:23:33;;;;;;;2.3;1.8;;;;;;;2.37;88.68848;938.2215;;;;
2022/11/25 07:26:05;;;;;;;2.2;1.6;;;;;;;2.44;88.15039;938.2203;;;;
2022/11/25 07:28:30;;;;;;;7.3;3.9;;;;;;;2.57;87.51953;938.1926;;;;
2022/11/25 07:30:55;;;;;;;6;4.2;;;;;;;2.7;86.88379;938.1359;;;;
2022/11/25 07:33:23;;;;;;;10.4;6.7;;;;;;;2.77;86.30273;938.2651;;;;
2022/11/25 07:35:48;;;;;;;6.3;3.6;;;;;;;2.77;85.71973;938.2734;;;;
2022/11/25 07:38:13;;;;;;;6.5;3.5;;;;;;;2.59;86.88281;938.3088;;;;
2022/11/25 07:40:39;;;;;;;7.6;4.6;;;;;;;2.33;88.45508;938.3102;;;;
2022/11/25 07:43:06;;;;;;;8.6;5.7;;;;;;;2.23;89.32813;938.3664;;;;
2022/11/25 07:45:31;;;;;;;6.8;4.8;;;;;;;2.3;89.41211;938.4047;;;;
2022/11/25 07:48:00;;;;;;;8.2;5;;;;;;;2.37;89.72656;938.4278;;;;
2022/11/25 07:50:23;;;;;;;8.8;5.8;;;;;;;2.5;89.51074;938.4445;;;;
2022/11/25 07:52:52;;;;;;;6.2;4;;;;;;;2.53;88.32813;938.4615;;;;
2022/11/25 07:55:17;;;;;;;6.6;3.9;;;;;;;2.76;87.33203;938.4714;;;;
2022/11/25 07:57:43;;;;;;;5.6;3.9;;;;;;;2.83;87.14551;938.4455;;;;
2022/11/25 08:00:08;;;;;;;5.1;3.6;;;;;;;2.99;86.17871;938.4685;;;;
2022/11/25 08:02:36;;;;;;;5.3;3.1;;;;;;;3.07;85.56641;938.4743;;;;
2022/11/25 08:05:01;;;;;;;3.8;3.2;;;;;;;3.16;85.47461;938.5029;;;;
2022/11/25 08:07:31;;;;;;;4.5;2.5;;;;;;;3.2;83.52832;938.5042;;;;
2022/11/25 08:09:56;;;;;;;3.6;3;;;;;;;3.42;83.08984;938.5642;;;;
2022/11/25 08:12:22;;;;;;;3.3;2.6;;;;;;;3.4;82.89355;938.5306;;;;
2022/11/25 08:14:47;;;;;;;4.7;2.7;;;;;;;3.57;82.6582;938.5602;;;;
2022/11/25 08:17:17;;;;;;;3.3;1.9;;;;;;;3.58;81.16504;938.5352;;;;
2022/11/25 08:19:44;;;;;;;1.4;1.3;;;;;;;3.71;79.68359;938.5237;;;;
2022/11/25 08:22:09;;;;;;;1.9;1.5;;;;;;;3.96;77.87598;938.5483;;;;
2022/11/25 08:24:34;;;;;;;4;1.6;;;;;;;4.84;77.55176;938.551;;;;
2022/11/25 08:27:02;;;;;;;1.6;1.5;;;;;;;5.76;72.17676;938.5074;;;;
2022/11/25 08:29:27;;;;;;;4.5;1.4;;;;;;;5.8;68.55762;938.4761;;;;
2022/11/25 08:31:52;;;;;;;3.4;2.4;;;;;;;5.89;69.79199;938.3911;;;;
2022/11/25 08:34:18;;;;;;;5.1;2.9;;;;;;;5.9;70.73047;938.4447;;;;
2022/11/25 08:36:43;;;;;;;5.4;3.8;;;;;;;6.26;69.8623;938.4863;;;;
2022/11/25 08:39:11;;;;;;;5.2;3.2;;;;;;;5.34;71.38281;938.449;;;;
2022/11/25 08:41:37;;;;;;;4.6;3.5;;;;;;;5.48;72.12793;938.526;;;;
2022/11/25 08:44:08;;;;;;;3.6;2.7;;;;;;;5.38;72.41699;938.4905;;;;
2022/11/25 08:46:35;;;;;;;2;1.3;;;;;;;5.53;70.5791;938.4958;;;;
2022/11/25 08:48:58;;;;;;;2.2;1.6;;;;;;;5.58;69.68359;938.5248;;;;
2022/11/25 08:51:26;;;;;;;4.4;2.7;;;;;;;5.73;70.92871;938.6202;;;;
2022/11/25 08:53:52;;;;;;;5.7;3.1;;;;;;;5.69;69.3418;938.6506;;;;
2022/11/25 08:56:18;;;;;;;3.8;2.8;;;;;;;5.54;70.85156;938.6516;;;;
2022/11/25 08:58:43;;;;;;;6.6;3.2;;;;;;;5.54;70.8291;938.6739;;;;
2022/11/25 09:01:12;;;;;;;4.8;2.8;;;;;;;5.52;70.95996;938.6581;;;;
2022/11/25 09:03:38;;;;;;;5.5;3.6;;;;;;;5.21;70.59375;938.6859;;;;
2022/11/25 09:06:04;;;;;;;8.1;3.6;;;;;;;5.36;72.2207;938.685;;;;
2022/11/25 09:08:30;;;;;;;7.8;4.8;;;;;;;5.34;73.89844;938.66;;;;
2022/11/25 09:10:57;;;;;;;7.4;4.4;;;;;;;5.17;74.87402;938.7753;;;;
2022/11/25 09:13:23;;;;;;;10.4;4.3;;;;;;;5.11;75.37012;938.7246;;;;
2022/11/25 09:15:56;;;;;;;6.8;4.3;;;;;;;4.77;77.28125;938.8081;;;;
2022/11/25 09:18:25;;;;;;;7;4.1;;;;;;;4.87;77.7832;938.7901;;;;
2022/11/25 09:20:48;;;;;;;6.5;3.9;;;;;;;4.92;76.22559;938.8422;;;;
2022/11/25 09:23:16;;;;;;;10.1;3.9;;;;;;;5.03;77.15918;938.8334;;;;
2022/11/25 09:25:41;;;;;;;5.7;3.7;;;;;;;5.09;76.08691;938.7767;;;;
2022/11/25 09:28:08;;;;;;;10;5.2;;;;;;;5.55;74.92578;938.7869;;;;
2022/11/25 09:30:33;;;;;;;18.2;7.3;;;;;;;5.88;75.07617;938.8175;;;;
2022/11/25 09:32:59;;;;;;;11.7;6.7;;;;;;;6.05;73.3877;938.8148;;;;
2022/11/25 09:35:25;;;;;;;5.6;3.1;;;;;;;6.16;69.56348;938.767;;;;
2022/11/25 09:37:52;;;;;;;5.6;3.8;;;;;;;6.09;68.58105;938.8262;;;;
2022/11/25 09:40:18;;;;;;;9;4.7;;;;;;;6.27;69.92188;938.7578;;;;
2022/11/25 09:47:38;;;;;;;4;2.8;;;;;;;6.12;70.29199;938.7938;;;;
2022/11/25 09:50:03;;;;;;;4.9;2.6;;;;;;;6.05;69.88477;938.7997;;;;
2022/11/25 09:52:34;;;;;;;6.4;3;;;;;;;6.01;70.79395;938.7789;;;;
2022/11/25 09:55:01;;;;;;;9.3;3.6;;;;;;;6.02;72.48047;938.8433;;;;
2022/11/25 09:57:28;;;;;;;8;4.1;;;;;;;5.89;72.40137;938.8817;;;;
2022/11/25 09:59:53;;;;;;;6.1;3.9;;;;;;;5.91;73.17188;938.8225;;;;
2022/11/25 10:02:18;;;;;;;5.9;3.7;;;;;;;5.94;71.37109;938.7951;;;;
2022/11/25 10:04:46;;;;;;;6.2;3;;;;;;;6.02;71.36035;938.7262;;;;
2022/11/25 10:07:11;;;;;;;5.3;2.5;;;;;;;5.97;69.45508;938.7452;;;;
2022/11/25 10:09:36;;;;;;;6.2;2.1;;;;;;;6.01;69.75488;938.7482;;;;
2022/11/25 10:12:02;;;;;;;4.7;1.6;;;;;;;6.12;68.26953;938.717;;;;
2022/11/25 10:14:27;;;;;;;6.2;1.7;;;;;;;6.12;68.89063;938.7416;;;;
2022/11/25 10:16:53;;;;;;;4.7;2.3;;;;;;;6.15;70.53516;938.7859;;;;
2022/11/25 10:19:18;;;;;;;4.6;2.2;;;;;;;6.19;69.97559;938.7063;;;;
2022/11/25 10:21:45;;;;;;;4.7;2.3;;;;;;;6.28;69.60645;938.7098;;;;
2022/11/25 10:24:08;;;;;;;1.8;0.8;;;;;;;6.34;69.07422;938.7177;;;;
2022/11/25 10:26:33;;;;;;;1.7;1.2;;;;;;;6.43;67.47168;938.7463;;;;
2022/11/25 10:28:58;;;;;;;2;1;;;;;;;6.56;67.70605;938.6926;;;;
2022/11/25 10:31:23;;;;;;;1.2;0.7;;;;;;;6.5;64.7002;938.7189;;;;
2022/11/25 10:33:48;;;;;;;2.8;1.6;;;;;;;6.63;64.92188;938.7104;;;;
2022/11/25 10:36:13;;;;;;;3.2;1.5;;;;;;;6.81;64.38281;938.7322;;;;
2022/11/25 10:38:40;;;;;;;1.5;0.9;;;;;;;7.04;63.27441;938.7487;;;;
2022/11/25 10:41:06;;;;;;;4.6;1.4;;;;;;;7.15;63.83496;938.6926;;;;
2022/11/25 10:43:32;;;;;;;4;2.6;;;;;;;7.16;60.37012;938.7316;;;;
2022/11/25 10:45:58;;;;;;;5.8;2.1;;;;;;;7.27;60.4873;938.736;;;;
2022/11/25 10:48:23;;;;;;;1.7;1.1;;;;;;;7.37;60.22852;938.7317;;;;
2022/11/25 10:50:50;;;;;;;3.1;1.6;;;;;;;7.45;60.78516;938.7109;;;;
2022/11/25 10:53:13;;;;;;;3.6;1.4;;;;;;;7.5;60.9043;938.6628;;;;
2022/11/25 10:55:38;;;;;;;4.1;1.7;;;;;;;7.53;59.12793;938.657;;;;
2022/11/25 10:58:03;;;;;;;6;1.6;;;;;;;7.5;56.58496;938.7096;;;;
2022/11/25 11:00:30;;;;;;;3.9;2.1;;;;;;;7.7;55.1377;938.7378;;;;
2022/11/25 11:02:55;;;;;;;2.1;1.2;;;;;;;7.65;55.09668;938.6727;;;;
2022/11/25 11:05:20;;;;;;;4.3;1.2;;;;;;;7.69;55.86133;938.511;;;;
2022/11/25 11:07:45;;;;;;;4.2;1.6;;;;;;;7.69;56.14355;938.5901;;;;
2022/11/25 11:10:11;;;;;;;5.9;1.8;;;;;;;7.84;58.99023;938.5722;;;;
2022/11/25 11:12:36;;;;;;;3.2;1.7;;;;;;;7.83;56.32129;938.5592;;;;
2022/11/25 11:15:01;;;;;;;2.9;1.3;;;;;;;7.93;57.2207;938.4972;;;;
2022/11/25 11:17:27;;;;;;;3;1.1;;;;;;;8.05;56.66895;938.4648;;;;
2022/11/25 11:19:52;;;;;;;1.8;1.4;;;;;;;8.04;57.10938;938.5454;;;;
2022/11/25 11:22:17;;;;;;;2.6;1.6;;;;;;;8.09;57.20898;938.5108;;;;
2022/11/25 11:24:42;;;;;;;2.3;1.5;;;;;;;8.24;57.84082;938.5098;;;;
2022/11/25 11:27:07;;;;;;;1.9;1;;;;;;;8.37;57.01758;938.5236;;;;
2022/11/25 11:29:36;;;;;;;2.8;1.3;;;;;;;8.44;57.19824;938.4728;;;;
2022/11/25 11:32:01;;;;;;;3.3;1.5;;;;;;;8.6;55.16211;938.524;;;;
2022/11/25 11:34:26;;;;;;;1.4;1.1;;;;;;;8.78;54.78516;938.5058;;;;
2022/11/25 11:36:55;;;;;;;2.9;1;;;;;;;8.99;56.70215;938.4904;;;;
2022/11/25 11:39:20;;;;;;;2.4;0.9;;;;;;;9.03;55.19336;938.5349;;;;
2022/11/25 11:41:45;;;;;;;2.5;1.1;;;;;;;9.19;54.83887;938.5406;;;;
2022/11/25 11:44:26;;;;;;;1.2;1.1;;;;;;;9.21;52.49609;938.4836;;;;
2022/11/25 11:46:55;;;;;;;1.6;0.8;;;;;;;9.2;50.94824;938.4352;;;;
2022/11/25 11:49:20;;;;;;;0.9;0.7;;;;;;;9.24;51.45215;938.4558;;;;
2022/11/25 11:51:45;;;;;;;1.2;0.6;;;;;;;9.21;51.75684;938.4395;;;;
2022/11/25 11:54:11;;;;;;;2.7;0.9;;;;;;;9.37;51.0127;938.46;;;;
2022/11/25 11:56:35;;;;;;;1.1;0.6;;;;;;;9.44;51.4541;938.4001;;;;
2022/11/25 11:59:00;;;;;;;0.8;0.6;;;;;;;9.68;52.43945;938.4353;;;;
2022/11/25 12:01:27;;;;;;;1.2;0.8;;;;;;;9.62;51.72656;938.3639;;;;
2022/11/25 12:03:52;;;;;;;2;0.8;;;;;;;9.69;51.4502;938.3123;;;;
2022/11/25 12:06:17;;;;;;;2.4;0.8;;;;;;;9.64;51.55762;938.3156;;;;
2022/11/25 12:08:42;;;;;;;1.6;0.7;;;;;;;9.72;51.05469;938.2537;;;;
2022/11/25 12:11:07;;;;;;;1.1;0.7;;;;;;;9.89;50.72168;938.214;;;;
2022/11/25 12:13:33;;;;;;;3.5;1.2;;;;;;;9.99;50.7207;938.1769;;;;
2022/11/25 12:16:00;;;;;;;3.5;1.4;;;;;;;10.19;49.4668;938.1747;;;;
2022/11/25 12:18:52;;;;;;;3.2;1.6;;;;;;;10.43;49.75684;938.1342;;;;
2022/11/25 12:21:17;;;;;;;1.2;0.5;;;;;;;10.2;51.56738;938.1358;;;;
2022/11/25 12:23:42;;;;;;;4;1.1;;;;;;;10.29;52.25098;938.072;;;;
2022/11/25 12:26:07;;;;;;;0.8;0.5;;;;;;;10.09;48.82813;938.0924;;;;
2022/11/25 12:28:35;;;;;;;3.1;0.7;;;;;;;10.28;50.37891;938.0338;;;;
2022/11/25 12:31:00;;;;;;;0.9;0.5;;;;;;;10.31;49.16113;938.0825;;;;
2022/11/25 12:33:28;;;;;;;0.7;0.6;;;;;;;9.97;51.72266;938.0709;;;;
2022/11/25 12:38:18;;;;;;;1;0.4;;;;;;;10.18;52.39648;938.0393;;;;
2022/11/25 12:40:43;;;;;;;0.6;0.4;;;;;;;10.27;51.09668;937.9978;;;;
2022/11/25 12:43:09;;;;;;;1.8;0.7;;;;;;;10.48;48.70117;938.0114;;;;
2022/11/25 12:45:34;;;;;;;2.7;0.8;;;;;;;10.66;48.45898;938.0705;;;;
2022/11/25 12:47:59;;;;;;;1.4;0.9;;;;;;;10.76;49.41797;937.9997;;;;
2022/11/25 12:50:25;;;;;;;1.6;0.9;;;;;;;10.95;49.33691;938.0595;;;;
2022/11/25 12:52:51;;;;;;;1.6;0.9;;;;;;;11.09;47.54688;938.0369;;;;
2022/11/25 12:55:17;;;;;;;2.2;1.3;;;;;;;10.95;47.82813;937.9536;;;;
2022/11/25 12:57:43;;;;;;;4.9;1.3;;;;;;;10.98;49.48926;938.063;;;;
2022/11/25 13:00:13;;;;;;;6.5;1.8;;;;;;;11.26;50.8125;937.9722;;;;
2022/11/25 13:02:39;;;;;;;6.4;1.7;;;;;;;11.44;51.24707;938.0556;;;;
2022/11/25 13:05:04;;;;;;;4.6;1.4;;;;;;;11.55;50.06934;938.0005;;;;
2022/11/25 13:08:02;;;;;;;1.4;0.9;;;;;;;11.41;47.68457;938.0528;;;;
2022/11/25 13:10:28;;;;;;;1.9;0.8;;;;;;;11.57;46.29492;937.9702;;;;
2022/11/25 13:12:57;;;;;;;2.8;0.8;;;;;;;11.74;45.33984;937.9849;;;;
2022/11/25 13:15:22;;;;;;;3.7;0.9;;;;;;;11.9;45.53906;937.9686;;;;
2022/11/25 13:17:49;;;;;;;2.1;0.9;;;;;;;11.93;45.30273;937.9623;;;;
2022/11/25 13:20:15;;;;;;;2;1.1;;;;;;;11.83;43.71191;937.9172;;;;
2022/11/25 13:22:40;;;;;;;3.7;2;;;;;;;11.63;44.9043;937.9732;;;;
2022/11/25 13:25:05;;;;;;;4.4;2.5;;;;;;;11.67;44.63281;938.0125;;;;
2022/11/25 13:27:30;;;;;;;5.2;3;;;;;;;11.72;45.64648;938.0159;;;;
2022/11/25 13:29:56;;;;;;;6.3;3.1;;;;;;;11.57;43.73145;937.9208;;;;
2022/11/25 13:32:21;;;;;;;6.2;2.9;;;;;;;11.95;44.54785;938.0446;;;;
2022/11/25 13:34:46;;;;;;;4.7;2.9;;;;;;;11.94;46.20801;938.0103;;;;
2022/11/25 13:37:12;;;;;;;7.1;3.6;;;;;;;11.86;46.07324;938.0266;;;;
2022/11/25 13:39:37;;;;;;;4.3;2.7;;;;;;;11.66;45.6748;937.9797;;;;
2022/11/25 13:42:02;;;;;;;3.8;1.8;;;;;;;11.32;46.41602;938.0331;;;;
2022/11/25 13:44:31;;;;;;;5.1;2;;;;;;;11.04;47.43848;938.031;;;;
2022/11/25 13:46:54;;;;;;;6.5;2.2;;;;;;;11.08;48.58594;938.068;;;;
2022/11/25 13:49:19;;;;;;;6.6;3.1;;;;;;;11.16;47.85156;938.0533;;;;
2022/11/25 13:51:44;;;;;;;6.5;3.2;;;;;;;10.98;48.76855;938.1331;;;;
2022/11/25 13:54:09;;;;;;;6.5;3.5;;;;;;;10.87;51.13281;938.1808;;;;
2022/11/25 13:56:34;;;;;;;8.7;4.4;;;;;;;10.64;53.18457;938.2623;;;;
2022/11/25 13:59:02;;;;;;;6.9;4;;;;;;;10.31;52.53906;938.202;;;;
2022/11/25 14:01:27;;;;;;;10.4;4.4;;;;;;;10.18;53.35645;938.3011;;;;
2022/11/25 14:03:53;;;;;;;10.9;4.6;;;;;;;10.09;54.79297;938.3192;;;;
2022/11/25 14:06:18;;;;;;;9.5;4.7;;;;;;;10.05;56.01953;938.318;;;;
2022/11/25 14:08:43;;;;;;;13.4;6.6;;;;;;;10.02;56.96289;938.3311;;;;
2022/11/25 14:11:12;;;;;;;15.3;6.3;;;;;;;10;58.76172;938.2957;;;;
2022/11/25 14:13:38;;;;;;;31;12.4;;;;;;;9.77;59.94922;938.3347;;;;
2022/11/25 14:16:08;;;;;;;21.6;8.7;;;;;;;9.59;60.89453;938.3886;;;;
2022/11/25 14:18:36;;;;;;;6.4;3.4;;;;;;;9.42;59.82129;938.4332;;;;
2022/11/25 14:21:05;;;;;;;8.3;4.5;;;;;;;9.47;60.23828;938.4967;;;;
2022/11/25 14:23:40;;;;;;;9.4;5.2;;;;;;;9.46;61.20508;938.5308;;;;
2022/11/25 14:26:07;;;;;;;10;5.7;;;;;;;9.26;60.54004;938.5458;;;;
2022/11/25 14:28:32;;;;;;;8.5;5.3;;;;;;;9.22;59.74805;938.5842;;;;
2022/11/25 14:30:59;;;;;;;10.3;5.1;;;;;;;9.25;58.52246;938.5663;;;;
2022/11/25 14:33:23;;;;;;;11.8;5;;;;;;;9.27;60.31348;938.6652;;;;
2022/11/25 14:35:48;;;;;;;5.9;4.4;;;;;;;9.33;60.00293;938.7377;;;;
2022/11/25 14:38:15;;;;;;;6.3;4.1;;;;;;;9.39;60.30859;938.7608;;;;
2022/11/25 14:40:40;;;;;;;8.1;4.3;;;;;;;9.46;60.94336;938.7597;;;;
2022/11/25 14:43:08;;;;;;;7.8;4.5;;;;;;;9.48;60.9248;938.7536;;;;
2022/11/25 14:45:34;;;;;;;8.5;4.7;;;;;;;9.45;61.49023;938.7938;;;;
2022/11/25 14:48:00;;;;;;;9;4.5;;;;;;;9.4;63.26855;938.8697;;;;
2022/11/25 14:50:25;;;;;;;6.7;3.4;;;;;;;9.14;61.0918;938.9069;;;;
2022/11/25 14:52:52;;;;;;;5.6;3.1;;;;;;;9.09;61.66504;938.9815;;;;
2022/11/25 14:55:17;;;;;;;6.1;3.5;;;;;;;9;60.09473;939.0028;;;;
2022/11/25 14:57:47;;;;;;;7.4;3.1;;;;;;;9;61.16406;939.0894;;;;
2022/11/25 15:00:14;;;;;;;8.1;4.8;;;;;;;9.01;62.49512;939.1113;;;;
2022/11/25 15:02:38;;;;;;;10.2;4.9;;;;;;;8.98;63.85645;939.1161;;;;
2022/11/25 15:05:03;;;;;;;15;6.5;;;;;;;8.87;67.25293;939.1214;;;;
2022/11/25 15:07:29;;;;;;;36.6;17.5;;;;;;;8.76;68.22363;939.1763;;;;